sensor_id;sensor_type;location;lat;lon;timestamp;temperature;humidity
15394;DHT22;7795;47.986;11.868;2022-07-03T00:02:11;18.70;69.50
15394;DHT22;7795;47.986;11.868;2022-07-03T00:04:39;18.70;69.50
15394;DHT22;7795;47.986;11.868;2022-07-03T00:07:05;18.80;69.70
15394;DHT22;7795;47.986;11.868;2022-07-03T00:09:30;18.70;69.50
15394;DHT22;7795;47.986;11.868;2022-07-03T00:11:56;18.80;69.50
15394;DHT22;7795;47.986;11.868;2022-07-03T00:14:22;18.70;69.50
15394;DHT22;7795;47.986;11.868;2022-07-03T00:16:49;18.70;69.70
15394;DHT22;7795;47.986;11.868;2022-07-03T00:19:14;18.70;69.80
15394;DHT22;7795;47.986;11.868;2022-07-03T00:21:47;18.70;69.80
15394;DHT22;7795;47.986;11.868;2022-07-03T00:24:20;18.60;70.00
15394;DHT22;7795;47.986;11.868;2022-07-03T00:26:51;18.60;70.10
15394;DHT22;7795;47.986;11.868;2022-07-03T00:29:20;18.60;69.90
15394;DHT22;7795;47.986;11.868;2022-07-03T00:31:47;18.60;70.10
15394;DHT22;7795;47.986;11.868;2022-07-03T00:34:15;18.60;70.00
15394;DHT22;7795;47.986;11.868;2022-07-03T00:36:45;18.60;70.20
15394;DHT22;7795;47.986;11.868;2022-07-03T00:39:11;18.50;70.40
15394;DHT22;7795;47.986;11.868;2022-07-03T00:41:37;18.50;70.20
15394;DHT22;7795;47.986;11.868;2022-07-03T00:44:04;18.50;70.30
15394;DHT22;7795;47.986;11.868;2022-07-03T00:46:30;18.50;70.40
15394;DHT22;7795;47.986;11.868;2022-07-03T00:48:57;18.40;70.40
15394;DHT22;7795;47.986;11.868;2022-07-03T00:51:24;18.40;70.50
15394;DHT22;7795;47.986;11.868;2022-07-03T00:53:56;18.40;70.70
15394;DHT22;7795;47.986;11.868;2022-07-03T00:56:24;18.40;71.00
15394;DHT22;7795;47.986;11.868;2022-07-03T00:58:53;18.40;71.00
15394;DHT22;7795;47.986;11.868;2022-07-03T01:01:20;18.40;71.00
15394;DHT22;7795;47.986;11.868;2022-07-03T01:03:49;18.40;71.00
15394;DHT22;7795;47.986;11.868;2022-07-03T01:06:19;18.40;71.10
15394;DHT22;7795;47.986;11.868;2022-07-03T01:08:50;18.40;71.00
15394;DHT22;7795;47.986;11.868;2022-07-03T01:11:21;18.40;71.10
15394;DHT22;7795;47.986;11.868;2022-07-03T01:14:00;18.30;71.20
15394;DHT22;7795;47.986;11.868;2022-07-03T01:16:32;18.30;71.30
15394;DHT22;7795;47.986;11.868;2022-07-03T01:19:06;18.30;71.00
15394;DHT22;7795;47.986;11.868;2022-07-03T01:21:36;18.30;71.30
15394;DHT22;7795;47.986;11.868;2022-07-03T01:24:19;18.30;71.00
15394;DHT22;7795;47.986;11.868;2022-07-03T01:26:55;18.30;72.30
15394;DHT22;7795;47.986;11.868;2022-07-03T01:29:35;18.30;72.40
15394;DHT22;7795;47.986;11.868;2022-07-03T01:32:01;18.20;71.40
15394;DHT22;7795;47.986;11.868;2022-07-03T01:34:33;18.20;71.20
15394;DHT22;7795;47.986;11.868;2022-07-03T01:37:00;18.10;71.70
15394;DHT22;7795;47.986;11.868;2022-07-03T01:39:27;18.10;71.60
15394;DHT22;7795;47.986;11.868;2022-07-03T01:41:55;18.10;71.60
15394;DHT22;7795;47.986;11.868;2022-07-03T01:44:25;18.10;71.80
15394;DHT22;7795;47.986;11.868;2022-07-03T01:46:54;18.10;71.90
15394;DHT22;7795;47.986;11.868;2022-07-03T01:49:22;18.10;72.10
15394;DHT22;7795;47.986;11.868;2022-07-03T01:51:52;18.10;72.00
15394;DHT22;7795;47.986;11.868;2022-07-03T01:54:19;18.00;72.10
15394;DHT22;7795;47.986;11.868;2022-07-03T01:56:46;18.00;72.10
15394;DHT22;7795;47.986;11.868;2022-07-03T01:59:13;18.00;72.20
15394;DHT22;7795;47.986;11.868;2022-07-03T02:01:44;18.00;72.50
15394;DHT22;7795;47.986;11.868;2022-07-03T02:04:16;17.90;72.40
15394;DHT22;7795;47.986;11.868;2022-07-03T02:06:46;17.90;72.70
15394;DHT22;7795;47.986;11.868;2022-07-03T02:09:18;17.90;72.50
15394;DHT22;7795;47.986;11.868;2022-07-03T02:11:46;17.90;73.40
15394;DHT22;7795;47.986;11.868;2022-07-03T02:14:16;17.90;72.50
15394;DHT22;7795;47.986;11.868;2022-07-03T02:16:57;17.80;72.80
15394;DHT22;7795;47.986;11.868;2022-07-03T02:19:41;17.80;73.30
15394;DHT22;7795;47.986;11.868;2022-07-03T02:22:09;17.80;73.30
15394;DHT22;7795;47.986;11.868;2022-07-03T02:24:42;17.80;72.80
15394;DHT22;7795;47.986;11.868;2022-07-03T02:27:15;17.80;73.30
15394;DHT22;7795;47.986;11.868;2022-07-03T02:29:47;17.70;73.20
15394;DHT22;7795;47.986;11.868;2022-07-03T02:32:19;17.70;73.50
15394;DHT22;7795;47.986;11.868;2022-07-03T02:34:49;17.70;73.50
15394;DHT22;7795;47.986;11.868;2022-07-03T02:37:18;17.70;73.40
15394;DHT22;7795;47.986;11.868;2022-07-03T02:39:48;17.70;73.60
15394;DHT22;7795;47.986;11.868;2022-07-03T02:42:22;17.70;73.70
15394;DHT22;7795;47.986;11.868;2022-07-03T02:44:52;17.70;74.00
15394;DHT22;7795;47.986;11.868;2022-07-03T02:47:25;17.70;73.70
15394;DHT22;7795;47.986;11.868;2022-07-03T02:49:58;17.80;74.00
15394;DHT22;7795;47.986;11.868;2022-07-03T02:52:32;17.80;74.80
15394;DHT22;7795;47.986;11.868;2022-07-03T02:55:02;17.80;74.00
15394;DHT22;7795;47.986;11.868;2022-07-03T02:57:38;17.80;73.90
15394;DHT22;7795;47.986;11.868;2022-07-03T03:00:09;17.80;74.20
15394;DHT22;7795;47.986;11.868;2022-07-03T03:02:54;17.80;74.10
15394;DHT22;7795;47.986;11.868;2022-07-03T03:05:30;17.80;74.70
15394;DHT22;7795;47.986;11.868;2022-07-03T03:08:05;17.80;74.60
15394;DHT22;7795;47.986;11.868;2022-07-03T03:10:34;17.80;74.70
15394;DHT22;7795;47.986;11.868;2022-07-03T03:13:04;17.80;74.60
15394;DHT22;7795;47.986;11.868;2022-07-03T03:15:35;17.80;74.70
15394;DHT22;7795;47.986;11.868;2022-07-03T03:18:03;17.90;74.70
15394;DHT22;7795;47.986;11.868;2022-07-03T03:20:31;17.90;74.70
15394;DHT22;7795;47.986;11.868;2022-07-03T03:23:17;17.90;74.80
15394;DHT22;7795;47.986;11.868;2022-07-03T03:25:45;17.90;76.20
15394;DHT22;7795;47.986;11.868;2022-07-03T03:28:12;17.90;74.70
15394;DHT22;7795;47.986;11.868;2022-07-03T03:30:39;17.90;74.80
15394;DHT22;7795;47.986;11.868;2022-07-03T03:33:05;17.90;75.10
15394;DHT22;7795;47.986;11.868;2022-07-03T03:35:34;17.90;75.80
15394;DHT22;7795;47.986;11.868;2022-07-03T03:38:00;18.00;75.20
15394;DHT22;7795;47.986;11.868;2022-07-03T03:40:25;18.00;75.20
15394;DHT22;7795;47.986;11.868;2022-07-03T03:42:51;18.00;75.10
15394;DHT22;7795;47.986;11.868;2022-07-03T03:45:17;18.00;75.20
15394;DHT22;7795;47.986;11.868;2022-07-03T03:47:44;18.00;75.30
15394;DHT22;7795;47.986;11.868;2022-07-03T03:50:10;18.00;75.60
15394;DHT22;7795;47.986;11.868;2022-07-03T03:52:36;18.00;75.60
15394;DHT22;7795;47.986;11.868;2022-07-03T03:55:02;18.10;75.70
15394;DHT22;7795;47.986;11.868;2022-07-03T03:57:28;18.10;75.80
15394;DHT22;7795;47.986;11.868;2022-07-03T03:59:54;18.10;75.90
15394;DHT22;7795;47.986;11.868;2022-07-03T04:02:21;18.10;76.00
15394;DHT22;7795;47.986;11.868;2022-07-03T04:04:48;18.20;76.00
15394;DHT22;7795;47.986;11.868;2022-07-03T04:07:14;18.20;76.20
15394;DHT22;7795;47.986;11.868;2022-07-03T04:09:39;18.20;76.10
15394;DHT22;7795;47.986;11.868;2022-07-03T04:12:06;18.20;76.10
15394;DHT22;7795;47.986;11.868;2022-07-03T04:14:31;18.20;76.10
15394;DHT22;7795;47.986;11.868;2022-07-03T04:16:57;18.20;76.10
15394;DHT22;7795;47.986;11.868;2022-07-03T04:19:23;18.20;76.10
15394;DHT22;7795;47.986;11.868;2022-07-03T04:21:50;18.20;76.20
15394;DHT22;7795;47.986;11.868;2022-07-03T04:24:17;18.30;76.40
15394;DHT22;7795;47.986;11.868;2022-07-03T04:26:43;18.30;76.20
15394;DHT22;7795;47.986;11.868;2022-07-03T04:29:09;18.20;76.10
15394;DHT22;7795;47.986;11.868;2022-07-03T04:31:34;18.20;76.10
15394;DHT22;7795;47.986;11.868;2022-07-03T04:34:00;18.20;76.10
15394;DHT22;7795;47.986;11.868;2022-07-03T04:36:26;18.20;76.00
15394;DHT22;7795;47.986;11.868;2022-07-03T04:38:53;18.20;76.00
15394;DHT22;7795;47.986;11.868;2022-07-03T04:41:19;18.20;76.10
15394;DHT22;7795;47.986;11.868;2022-07-03T04:43:45;18.20;76.10
15394;DHT22;7795;47.986;11.868;2022-07-03T04:46:10;18.20;76.20
15394;DHT22;7795;47.986;11.868;2022-07-03T04:48:36;18.20;76.30
15394;DHT22;7795;47.986;11.868;2022-07-03T04:51:02;18.20;76.30
15394;DHT22;7795;47.986;11.868;2022-07-03T04:53:28;18.20;76.50
15394;DHT22;7795;47.986;11.868;2022-07-03T04:55:55;18.30;76.90
15394;DHT22;7795;47.986;11.868;2022-07-03T04:58:21;18.30;77.10
15394;DHT22;7795;47.986;11.868;2022-07-03T05:00:47;18.40;77.30
15394;DHT22;7795;47.986;11.868;2022-07-03T05:03:13;18.50;77.40
15394;DHT22;7795;47.986;11.868;2022-07-03T05:05:39;18.60;77.40
15394;DHT22;7795;47.986;11.868;2022-07-03T05:08:05;18.70;77.50
15394;DHT22;7795;47.986;11.868;2022-07-03T05:10:30;18.90;77.70
15394;DHT22;7795;47.986;11.868;2022-07-03T05:12:58;19.10;77.60
15394;DHT22;7795;47.986;11.868;2022-07-03T05:15:23;19.30;77.60
15394;DHT22;7795;47.986;11.868;2022-07-03T05:17:49;19.50;77.50
15394;DHT22;7795;47.986;11.868;2022-07-03T05:20:15;19.70;77.20
15394;DHT22;7795;47.986;11.868;2022-07-03T05:22:50;20.00;77.00
15394;DHT22;7795;47.986;11.868;2022-07-03T05:25:16;20.30;76.80
15394;DHT22;7795;47.986;11.868;2022-07-03T05:27:42;20.50;76.50
15394;DHT22;7795;47.986;11.868;2022-07-03T05:30:10;20.80;76.20
15394;DHT22;7795;47.986;11.868;2022-07-03T05:32:36;21.10;75.80
15394;DHT22;7795;47.986;11.868;2022-07-03T05:35:02;21.40;75.50
15394;DHT22;7795;47.986;11.868;2022-07-03T05:37:28;21.70;75.00
15394;DHT22;7795;47.986;11.868;2022-07-03T05:39:54;22.00;74.70
15394;DHT22;7795;47.986;11.868;2022-07-03T05:42:19;22.20;74.60
15394;DHT22;7795;47.986;11.868;2022-07-03T05:44:45;22.50;74.30
15394;DHT22;7795;47.986;11.868;2022-07-03T05:47:12;22.80;74.10
15394;DHT22;7795;47.986;11.868;2022-07-03T05:49:38;23.10;73.70
15394;DHT22;7795;47.986;11.868;2022-07-03T05:52:04;23.40;73.40
15394;DHT22;7795;47.986;11.868;2022-07-03T05:54:30;23.60;72.80
15394;DHT22;7795;47.986;11.868;2022-07-03T05:56:56;23.90;72.40
15394;DHT22;7795;47.986;11.868;2022-07-03T05:59:22;24.10;71.90
15394;DHT22;7795;47.986;11.868;2022-07-03T06:01:47;24.30;71.50
15394;DHT22;7795;47.986;11.868;2022-07-03T06:04:14;24.60;71.30
15394;DHT22;7795;47.986;11.868;2022-07-03T06:06:40;24.80;70.90
15394;DHT22;7795;47.986;11.868;2022-07-03T06:09:06;25.00;70.60
15394;DHT22;7795;47.986;11.868;2022-07-03T06:11:32;25.20;70.20
15394;DHT22;7795;47.986;11.868;2022-07-03T06:13:57;25.40;69.90
15394;DHT22;7795;47.986;11.868;2022-07-03T06:16:23;25.50;69.40
15394;DHT22;7795;47.986;11.868;2022-07-03T06:18:49;25.70;69.10
15394;DHT22;7795;47.986;11.868;2022-07-03T06:21:16;25.80;68.80
15394;DHT22;7795;47.986;11.868;2022-07-03T06:23:42;25.90;68.30
15394;DHT22;7795;47.986;11.868;2022-07-03T06:26:08;26.10;68.20
15394;DHT22;7795;47.986;11.868;2022-07-03T06:28:33;26.20;67.90
15394;DHT22;7795;47.986;11.868;2022-07-03T06:30:59;26.30;67.60
15394;DHT22;7795;47.986;11.868;2022-07-03T06:33:25;26.40;67.70
15394;DHT22;7795;47.986;11.868;2022-07-03T06:35:51;26.50;67.40
15394;DHT22;7795;47.986;11.868;2022-07-03T06:38:18;26.50;67.30
15394;DHT22;7795;47.986;11.868;2022-07-03T06:40:44;26.60;67.10
15394;DHT22;7795;47.986;11.868;2022-07-03T06:43:09;26.70;67.80
15394;DHT22;7795;47.986;11.868;2022-07-03T06:45:35;26.80;66.80
15394;DHT22;7795;47.986;11.868;2022-07-03T06:48:01;26.90;66.70
15394;DHT22;7795;47.986;11.868;2022-07-03T06:50:27;26.90;66.50
15394;DHT22;7795;47.986;11.868;2022-07-03T06:52:52;27.00;66.40
15394;DHT22;7795;47.986;11.868;2022-07-03T06:55:20;27.10;66.10
15394;DHT22;7795;47.986;11.868;2022-07-03T06:57:45;27.10;65.40
15394;DHT22;7795;47.986;11.868;2022-07-03T07:00:12;27.20;66.00
15394;DHT22;7795;47.986;11.868;2022-07-03T07:02:38;27.20;65.10
15394;DHT22;7795;47.986;11.868;2022-07-03T07:05:04;27.30;64.80
15394;DHT22;7795;47.986;11.868;2022-07-03T07:07:30;27.30;64.30
15394;DHT22;7795;47.986;11.868;2022-07-03T07:09:56;27.40;64.20
15394;DHT22;7795;47.986;11.868;2022-07-03T07:12:23;27.40;63.00
15394;DHT22;7795;47.986;11.868;2022-07-03T07:14:51;27.40;62.00
15394;DHT22;7795;47.986;11.868;2022-07-03T07:17:16;27.50;62.30
15394;DHT22;7795;47.986;11.868;2022-07-03T07:19:42;27.50;61.80
15394;DHT22;7795;47.986;11.868;2022-07-03T07:22:08;27.50;61.10
15394;DHT22;7795;47.986;11.868;2022-07-03T07:24:33;27.50;60.20
15394;DHT22;7795;47.986;11.868;2022-07-03T07:26:59;27.50;61.00
15394;DHT22;7795;47.986;11.868;2022-07-03T07:29:27;27.50;60.10
15394;DHT22;7795;47.986;11.868;2022-07-03T07:31:52;27.50;59.50
15394;DHT22;7795;47.986;11.868;2022-07-03T07:34:18;27.40;59.50
15394;DHT22;7795;47.986;11.868;2022-07-03T07:36:44;27.40;59.40
15394;DHT22;7795;47.986;11.868;2022-07-03T07:39:10;27.40;59.10
15394;DHT22;7795;47.986;11.868;2022-07-03T07:41:35;27.40;58.80
15394;DHT22;7795;47.986;11.868;2022-07-03T07:44:01;27.40;58.70
15394;DHT22;7795;47.986;11.868;2022-07-03T07:46:29;27.40;58.50
15394;DHT22;7795;47.986;11.868;2022-07-03T07:48:55;27.40;58.30
15394;DHT22;7795;47.986;11.868;2022-07-03T07:51:20;27.40;58.10
15394;DHT22;7795;47.986;11.868;2022-07-03T07:53:46;27.40;58.20
15394;DHT22;7795;47.986;11.868;2022-07-03T07:56:12;27.40;57.70
15394;DHT22;7795;47.986;11.868;2022-07-03T07:58:38;27.40;57.60
15394;DHT22;7795;47.986;11.868;2022-07-03T08:01:04;27.40;57.30
15394;DHT22;7795;47.986;11.868;2022-07-03T08:03:50;27.40;57.40
15394;DHT22;7795;47.986;11.868;2022-07-03T08:06:34;27.40;57.60
15394;DHT22;7795;47.986;11.868;2022-07-03T08:08:59;27.40;57.60
15394;DHT22;7795;47.986;11.868;2022-07-03T08:11:25;27.50;57.50
15394;DHT22;7795;47.986;11.868;2022-07-03T08:13:51;27.50;57.50
15394;DHT22;7795;47.986;11.868;2022-07-03T08:16:17;27.50;57.70
15394;DHT22;7795;47.986;11.868;2022-07-03T08:18:43;27.50;57.80
15394;DHT22;7795;47.986;11.868;2022-07-03T08:21:10;27.50;57.50
15394;DHT22;7795;47.986;11.868;2022-07-03T08:23:36;27.60;57.20
15394;DHT22;7795;47.986;11.868;2022-07-03T08:26:01;27.60;57.50
15394;DHT22;7795;47.986;11.868;2022-07-03T08:28:27;27.60;57.20
15394;DHT22;7795;47.986;11.868;2022-07-03T08:30:53;27.70;56.90
15394;DHT22;7795;47.986;11.868;2022-07-03T08:33:19;27.80;57.00
15394;DHT22;7795;47.986;11.868;2022-07-03T08:35:45;27.80;56.80
15394;DHT22;7795;47.986;11.868;2022-07-03T08:38:12;27.90;56.80
15394;DHT22;7795;47.986;11.868;2022-07-03T08:40:39;27.90;57.50
15394;DHT22;7795;47.986;11.868;2022-07-03T08:43:05;27.90;56.50
15394;DHT22;7795;47.986;11.868;2022-07-03T08:45:33;28.00;56.40
15394;DHT22;7795;47.986;11.868;2022-07-03T08:48:02;28.00;55.60
15394;DHT22;7795;47.986;11.868;2022-07-03T08:50:30;28.00;55.70
15394;DHT22;7795;47.986;11.868;2022-07-03T08:52:58;28.10;56.00
15394;DHT22;7795;47.986;11.868;2022-07-03T08:55:26;28.10;55.70
15394;DHT22;7795;47.986;11.868;2022-07-03T08:57:54;28.10;55.60
15394;DHT22;7795;47.986;11.868;2022-07-03T09:00:21;28.20;54.60
15394;DHT22;7795;47.986;11.868;2022-07-03T09:02:48;28.20;55.20
15394;DHT22;7795;47.986;11.868;2022-07-03T09:05:16;28.20;54.50
15394;DHT22;7795;47.986;11.868;2022-07-03T09:07:43;28.30;54.10
15394;DHT22;7795;47.986;11.868;2022-07-03T09:10:11;28.40;53.80
15394;DHT22;7795;47.986;11.868;2022-07-03T09:12:39;28.40;53.30
15394;DHT22;7795;47.986;11.868;2022-07-03T09:15:06;28.50;52.80
15394;DHT22;7795;47.986;11.868;2022-07-03T09:17:33;28.50;53.00
15394;DHT22;7795;47.986;11.868;2022-07-03T09:20:00;28.50;53.00
15394;DHT22;7795;47.986;11.868;2022-07-03T09:22:28;28.60;52.90
15394;DHT22;7795;47.986;11.868;2022-07-03T09:25:03;28.60;52.50
15394;DHT22;7795;47.986;11.868;2022-07-03T09:27:29;28.70;51.70
15394;DHT22;7795;47.986;11.868;2022-07-03T09:30:00;28.70;52.80
15394;DHT22;7795;47.986;11.868;2022-07-03T09:32:31;28.80;51.50
15394;DHT22;7795;47.986;11.868;2022-07-03T09:35:17;28.80;51.20
15394;DHT22;7795;47.986;11.868;2022-07-03T09:37:51;28.90;50.90
15394;DHT22;7795;47.986;11.868;2022-07-03T09:40:18;29.00;51.10
15394;DHT22;7795;47.986;11.868;2022-07-03T09:43:00;29.00;51.50
15394;DHT22;7795;47.986;11.868;2022-07-03T09:45:47;29.10;50.70
15394;DHT22;7795;47.986;11.868;2022-07-03T09:48:24;29.10;51.00
15394;DHT22;7795;47.986;11.868;2022-07-03T09:51:15;29.20;50.10
15394;DHT22;7795;47.986;11.868;2022-07-03T09:53:45;29.20;49.60
15394;DHT22;7795;47.986;11.868;2022-07-03T09:56:11;29.30;48.90
15394;DHT22;7795;47.986;11.868;2022-07-03T09:58:38;29.30;48.90
15394;DHT22;7795;47.986;11.868;2022-07-03T10:01:17;29.40;49.00
15394;DHT22;7795;47.986;11.868;2022-07-03T10:03:43;29.50;47.40
15394;DHT22;7795;47.986;11.868;2022-07-03T10:06:08;29.50;48.40
15394;DHT22;7795;47.986;11.868;2022-07-03T10:08:34;29.50;48.00
15394;DHT22;7795;47.986;11.868;2022-07-03T10:11:00;29.60;47.70
15394;DHT22;7795;47.986;11.868;2022-07-03T10:13:26;29.60;47.90
15394;DHT22;7795;47.986;11.868;2022-07-03T10:15:52;29.70;47.80
15394;DHT22;7795;47.986;11.868;2022-07-03T10:18:22;29.70;47.00
15394;DHT22;7795;47.986;11.868;2022-07-03T10:20:57;29.80;46.40
15394;DHT22;7795;47.986;11.868;2022-07-03T10:23:23;29.80;46.20
15394;DHT22;7795;47.986;11.868;2022-07-03T10:25:50;29.90;46.50
15394;DHT22;7795;47.986;11.868;2022-07-03T10:28:17;29.90;46.10
15394;DHT22;7795;47.986;11.868;2022-07-03T10:30:45;30.00;46.10
15394;DHT22;7795;47.986;11.868;2022-07-03T10:33:11;30.00;45.90
15394;DHT22;7795;47.986;11.868;2022-07-03T10:35:41;30.00;45.50
15394;DHT22;7795;47.986;11.868;2022-07-03T10:38:16;30.10;44.90
15394;DHT22;7795;47.986;11.868;2022-07-03T10:40:53;30.10;44.60
15394;DHT22;7795;47.986;11.868;2022-07-03T10:43:40;30.20;44.30
15394;DHT22;7795;47.986;11.868;2022-07-03T10:46:25;30.20;45.10
15394;DHT22;7795;47.986;11.868;2022-07-03T10:48:59;30.20;44.70
15394;DHT22;7795;47.986;11.868;2022-07-03T10:51:28;30.30;43.50
15394;DHT22;7795;47.986;11.868;2022-07-03T10:54:15;30.30;44.30
15394;DHT22;7795;47.986;11.868;2022-07-03T10:57:07;30.30;43.30
15394;DHT22;7795;47.986;11.868;2022-07-03T11:02:48;30.50;43.40
15394;DHT22;7795;47.986;11.868;2022-07-03T11:05:19;30.50;43.70
15394;DHT22;7795;47.986;11.868;2022-07-03T11:08:12;30.50;43.30
15394;DHT22;7795;47.986;11.868;2022-07-03T11:10:42;30.60;42.10
15394;DHT22;7795;47.986;11.868;2022-07-03T11:13:11;30.60;42.10
15394;DHT22;7795;47.986;11.868;2022-07-03T11:15:39;30.70;42.90
15394;DHT22;7795;47.986;11.868;2022-07-03T11:18:25;30.60;42.10
15394;DHT22;7795;47.986;11.868;2022-07-03T11:24:02;30.70;41.00
15394;DHT22;7795;47.986;11.868;2022-07-03T11:26:30;30.80;41.50
15394;DHT22;7795;47.986;11.868;2022-07-03T11:28:56;30.80;41.70
15394;DHT22;7795;47.986;11.868;2022-07-03T11:31:23;30.90;40.70
15394;DHT22;7795;47.986;11.868;2022-07-03T11:33:56;30.90;40.50
15394;DHT22;7795;47.986;11.868;2022-07-03T11:36:24;30.90;40.50
15394;DHT22;7795;47.986;11.868;2022-07-03T11:39:13;30.90;40.90
15394;DHT22;7795;47.986;11.868;2022-07-03T11:41:44;31.00;40.10
15394;DHT22;7795;47.986;11.868;2022-07-03T11:44:14;31.00;39.80
15394;DHT22;7795;47.986;11.868;2022-07-03T11:46:40;31.00;40.60
15394;DHT22;7795;47.986;11.868;2022-07-03T11:49:07;31.00;40.10
15394;DHT22;7795;47.986;11.868;2022-07-03T11:51:34;31.10;40.30
15394;DHT22;7795;47.986;11.868;2022-07-03T11:54:00;31.10;40.20
15394;DHT22;7795;47.986;11.868;2022-07-03T11:56:28;31.20;39.90
15394;DHT22;7795;47.986;11.868;2022-07-03T11:58:55;31.20;39.70
15394;DHT22;7795;47.986;11.868;2022-07-03T12:01:29;31.30;39.70
15394;DHT22;7795;47.986;11.868;2022-07-03T12:04:03;31.30;39.40
15394;DHT22;7795;47.986;11.868;2022-07-03T12:06:33;31.30;39.80
15394;DHT22;7795;47.986;11.868;2022-07-03T12:08:59;31.40;39.40
15394;DHT22;7795;47.986;11.868;2022-07-03T12:11:25;31.50;39.50
15394;DHT22;7795;47.986;11.868;2022-07-03T12:13:52;31.50;39.00
15394;DHT22;7795;47.986;11.868;2022-07-03T12:16:18;31.60;38.50
15394;DHT22;7795;47.986;11.868;2022-07-03T12:18:46;31.60;38.60
15394;DHT22;7795;47.986;11.868;2022-07-03T12:21:12;31.60;38.80
15394;DHT22;7795;47.986;11.868;2022-07-03T12:23:44;31.60;38.60
15394;DHT22;7795;47.986;11.868;2022-07-03T12:26:10;31.60;37.50
15394;DHT22;7795;47.986;11.868;2022-07-03T12:28:36;31.60;37.90
15394;DHT22;7795;47.986;11.868;2022-07-03T12:31:04;31.60;37.80
15394;DHT22;7795;47.986;11.868;2022-07-03T12:33:31;31.70;37.70
15394;DHT22;7795;47.986;11.868;2022-07-03T12:36:04;31.70;38.70
15394;DHT22;7795;47.986;11.868;2022-07-03T12:38:31;31.70;37.70
15394;DHT22;7795;47.986;11.868;2022-07-03T12:41:05;31.80;38.00
15394;DHT22;7795;47.986;11.868;2022-07-03T12:43:41;31.80;37.40
15394;DHT22;7795;47.986;11.868;2022-07-03T12:46:20;31.80;37.10
15394;DHT22;7795;47.986;11.868;2022-07-03T12:48:47;31.90;37.00
15394;DHT22;7795;47.986;11.868;2022-07-03T12:51:14;31.90;37.50
15394;DHT22;7795;47.986;11.868;2022-07-03T12:53:40;32.00;37.80
15394;DHT22;7795;47.986;11.868;2022-07-03T12:56:08;32.00;37.70
15394;DHT22;7795;47.986;11.868;2022-07-03T12:58:34;32.00;37.20
15394;DHT22;7795;47.986;11.868;2022-07-03T13:01:28;32.10;37.60
15394;DHT22;7795;47.986;11.868;2022-07-03T13:03:54;32.10;36.30
15394;DHT22;7795;47.986;11.868;2022-07-03T13:06:21;32.10;37.20
15394;DHT22;7795;47.986;11.868;2022-07-03T13:08:52;32.20;38.10
15394;DHT22;7795;47.986;11.868;2022-07-03T13:11:26;32.20;37.00
15394;DHT22;7795;47.986;11.868;2022-07-03T13:13:52;32.30;36.60
15394;DHT22;7795;47.986;11.868;2022-07-03T13:16:24;32.30;36.60
15394;DHT22;7795;47.986;11.868;2022-07-03T13:18:58;32.30;36.10
15394;DHT22;7795;47.986;11.868;2022-07-03T13:21:23;32.40;35.60
15394;DHT22;7795;47.986;11.868;2022-07-03T13:23:49;32.40;36.30
15394;DHT22;7795;47.986;11.868;2022-07-03T13:26:15;32.40;35.70
15394;DHT22;7795;47.986;11.868;2022-07-03T13:28:41;32.40;35.70
15394;DHT22;7795;47.986;11.868;2022-07-03T13:31:06;32.40;36.00
15394;DHT22;7795;47.986;11.868;2022-07-03T13:33:32;32.40;35.70
15394;DHT22;7795;47.986;11.868;2022-07-03T13:35:59;32.40;36.00
15394;DHT22;7795;47.986;11.868;2022-07-03T13:38:25;32.40;35.80
15394;DHT22;7795;47.986;11.868;2022-07-03T13:40:51;32.50;35.60
15394;DHT22;7795;47.986;11.868;2022-07-03T13:43:16;32.50;35.60
15394;DHT22;7795;47.986;11.868;2022-07-03T13:45:42;32.50;35.40
15394;DHT22;7795;47.986;11.868;2022-07-03T13:48:09;32.50;35.50
15394;DHT22;7795;47.986;11.868;2022-07-03T13:50:34;32.50;35.40
15394;DHT22;7795;47.986;11.868;2022-07-03T13:53:01;32.60;35.30
15394;DHT22;7795;47.986;11.868;2022-07-03T13:55:27;32.60;35.30
15394;DHT22;7795;47.986;11.868;2022-07-03T13:57:54;32.60;35.40
15394;DHT22;7795;47.986;11.868;2022-07-03T14:00:20;32.70;35.20
15394;DHT22;7795;47.986;11.868;2022-07-03T14:02:46;32.70;35.20
15394;DHT22;7795;47.986;11.868;2022-07-03T14:05:12;32.70;35.40
15394;DHT22;7795;47.986;11.868;2022-07-03T14:07:37;32.70;35.90
15394;DHT22;7795;47.986;11.868;2022-07-03T14:10:06;32.80;35.10
15394;DHT22;7795;47.986;11.868;2022-07-03T14:12:31;32.80;35.00
15394;DHT22;7795;47.986;11.868;2022-07-03T14:14:58;32.90;35.00
15394;DHT22;7795;47.986;11.868;2022-07-03T14:17:23;32.90;35.00
15394;DHT22;7795;47.986;11.868;2022-07-03T14:19:49;32.90;35.20
15394;DHT22;7795;47.986;11.868;2022-07-03T14:22:15;33.00;35.00
15394;DHT22;7795;47.986;11.868;2022-07-03T14:24:41;33.00;34.90
15394;DHT22;7795;47.986;11.868;2022-07-03T14:27:08;33.00;34.70
15394;DHT22;7795;47.986;11.868;2022-07-03T14:29:52;33.00;34.80
15394;DHT22;7795;47.986;11.868;2022-07-03T14:32:36;33.00;34.50
15394;DHT22;7795;47.986;11.868;2022-07-03T14:35:03;33.00;34.60
15394;DHT22;7795;47.986;11.868;2022-07-03T14:37:29;33.10;34.80
15394;DHT22;7795;47.986;11.868;2022-07-03T14:39:56;33.10;34.50
15394;DHT22;7795;47.986;11.868;2022-07-03T14:42:23;33.10;34.70
15394;DHT22;7795;47.986;11.868;2022-07-03T14:44:49;33.20;35.20
15394;DHT22;7795;47.986;11.868;2022-07-03T14:47:15;33.20;35.40
15394;DHT22;7795;47.986;11.868;2022-07-03T14:49:41;33.20;34.90
15394;DHT22;7795;47.986;11.868;2022-07-03T14:52:07;33.30;34.70
15394;DHT22;7795;47.986;11.868;2022-07-03T14:54:33;33.30;34.60
15394;DHT22;7795;47.986;11.868;2022-07-03T14:57:01;33.30;34.50
15394;DHT22;7795;47.986;11.868;2022-07-03T14:59:34;33.30;34.90
15394;DHT22;7795;47.986;11.868;2022-07-03T15:02:05;33.30;33.70
15394;DHT22;7795;47.986;11.868;2022-07-03T15:04:40;33.30;34.20
15394;DHT22;7795;47.986;11.868;2022-07-03T15:07:11;33.30;33.70
15394;DHT22;7795;47.986;11.868;2022-07-03T15:09:37;33.30;34.10
15394;DHT22;7795;47.986;11.868;2022-07-03T15:12:06;33.40;34.20
15394;DHT22;7795;47.986;11.868;2022-07-03T15:14:53;33.40;34.30
15394;DHT22;7795;47.986;11.868;2022-07-03T15:17:20;33.40;34.00
15394;DHT22;7795;47.986;11.868;2022-07-03T15:19:47;33.40;33.90
15394;DHT22;7795;47.986;11.868;2022-07-03T15:22:14;33.40;34.10
15394;DHT22;7795;47.986;11.868;2022-07-03T15:24:41;33.40;33.90
15394;DHT22;7795;47.986;11.868;2022-07-03T15:27:07;33.40;33.80
15394;DHT22;7795;47.986;11.868;2022-07-03T15:29:34;33.40;33.90
15394;DHT22;7795;47.986;11.868;2022-07-03T15:32:03;33.40;34.10
15394;DHT22;7795;47.986;11.868;2022-07-03T15:34:30;33.40;34.00
15394;DHT22;7795;47.986;11.868;2022-07-03T15:37:01;33.40;33.90
15394;DHT22;7795;47.986;11.868;2022-07-03T15:39:36;33.40;33.90
15394;DHT22;7795;47.986;11.868;2022-07-03T15:42:09;33.40;34.00
15394;DHT22;7795;47.986;11.868;2022-07-03T15:44:38;33.40;33.80
15394;DHT22;7795;47.986;11.868;2022-07-03T15:47:35;33.50;33.90